sensor_id;sensor_type;location;lat;lon;timestamp;P1;durP1;ratioP1;P2;durP2;ratioP2
62994;SDS011;49086;52.300;4.850;2023-01-19T00:02:23;2.55;;;0.70;;
62994;SDS011;49086;52.300;4.850;2023-01-19T00:04:55;1.58;;;0.95;;
62994;SDS011;49086;52.300;4.850;2023-01-19T00:07:31;2.63;;;0.88;;
62994;SDS011;49086;52.300;4.850;2023-01-19T00:10:07;3.05;;;0.70;;
62994;SDS011;49086;52.300;4.850;2023-01-19T00:12:34;5.60;;;1.02;;
62994;SDS011;49086;52.300;4.850;2023-01-19T00:15:02;2.42;;;1.00;;
62994;SDS011;49086;52.300;4.850;2023-01-19T00:17:29;4.97;;;0.93;;
62994;SDS011;49086;52.300;4.850;2023-01-19T00:19:55;1.10;;;0.70;;
62994;SDS011;49086;52.300;4.850;2023-01-19T00:22:21;3.05;;;0.70;;
62994;SDS011;49086;52.300;4.850;2023-01-19T00:24:46;3.47;;;0.70;;
62994;SDS011;49086;52.300;4.850;2023-01-19T00:27:11;3.42;;;0.70;;
62994;SDS011;49086;52.300;4.850;2023-01-19T00:29:36;1.63;;;0.80;;
62994;SDS011;49086;52.300;4.850;2023-01-19T00:32:02;4.13;;;0.80;;
62994;SDS011;49086;52.300;4.850;2023-01-19T00:34:31;2.25;;;0.70;;
62994;SDS011;49086;52.300;4.850;2023-01-19T00:39:48;4.87;;;0.80;;
62994;SDS011;49086;52.300;4.850;2023-01-19T00:42:13;1.02;;;0.60;;
62994;SDS011;49086;52.300;4.850;2023-01-19T00:44:57;2.35;;;0.75;;
62994;SDS011;49086;52.300;4.850;2023-01-19T00:47:23;1.42;;;0.57;;
62994;SDS011;49086;52.300;4.850;2023-01-19T00:49:51;2.72;;;1.10;;
62994;SDS011;49086;52.300;4.850;2023-01-19T00:52:21;4.82;;;0.80;;
62994;SDS011;49086;52.300;4.850;2023-01-19T00:54:49;2.35;;;0.65;;
62994;SDS011;49086;52.300;4.850;2023-01-19T00:57:16;1.50;;;0.80;;
62994;SDS011;49086;52.300;4.850;2023-01-19T00:59:43;3.85;;;0.85;;
62994;SDS011;49086;52.300;4.850;2023-01-19T01:02:08;2.58;;;0.90;;
62994;SDS011;49086;52.300;4.850;2023-01-19T01:04:35;5.32;;;1.08;;
62994;SDS011;49086;52.300;4.850;2023-01-19T01:07:00;5.95;;;1.20;;
62994;SDS011;49086;52.300;4.850;2023-01-19T01:09:28;4.10;;;0.90;;
62994;SDS011;49086;52.300;4.850;2023-01-19T01:11:57;4.75;;;1.10;;
62994;SDS011;49086;52.300;4.850;2023-01-19T01:14:22;4.50;;;1.00;;
62994;SDS011;49086;52.300;4.850;2023-01-19T01:16:50;3.55;;;0.90;;
62994;SDS011;49086;52.300;4.850;2023-01-19T01:19:17;8.82;;;1.63;;
62994;SDS011;49086;52.300;4.850;2023-01-19T01:21:46;7.60;;;1.13;;
62994;SDS011;49086;52.300;4.850;2023-01-19T01:24:14;5.60;;;1.15;;
62994;SDS011;49086;52.300;4.850;2023-01-19T01:27:00;9.98;;;1.33;;
62994;SDS011;49086;52.300;4.850;2023-01-19T01:29:26;5.75;;;1.30;;
62994;SDS011;49086;52.300;4.850;2023-01-19T01:31:51;2.22;;;0.82;;
62994;SDS011;49086;52.300;4.850;2023-01-19T01:34:17;2.95;;;1.00;;
62994;SDS011;49086;52.300;4.850;2023-01-19T01:36:43;6.07;;;1.58;;
62994;SDS011;49086;52.300;4.850;2023-01-19T01:39:09;2.08;;;0.68;;
62994;SDS011;49086;52.300;4.850;2023-01-19T01:41:43;3.03;;;0.90;;
62994;SDS011;49086;52.300;4.850;2023-01-19T01:49:24;8.38;;;1.10;;
62994;SDS011;49086;52.300;4.850;2023-01-19T01:51:51;3.53;;;1.00;;
62994;SDS011;49086;52.300;4.850;2023-01-19T01:54:19;1.63;;;0.88;;
62994;SDS011;49086;52.300;4.850;2023-01-19T01:56:46;4.95;;;0.75;;
62994;SDS011;49086;52.300;4.850;2023-01-19T01:59:36;7.68;;;0.90;;
62994;SDS011;49086;52.300;4.850;2023-01-19T02:02:05;8.20;;;1.25;;
62994;SDS011;49086;52.300;4.850;2023-01-19T02:04:51;4.43;;;0.80;;
62994;SDS011;49086;52.300;4.850;2023-01-19T02:07:21;3.25;;;0.70;;
62994;SDS011;49086;52.300;4.850;2023-01-19T02:10:06;4.88;;;0.80;;
62994;SDS011;49086;52.300;4.850;2023-01-19T02:12:52;1.83;;;0.68;;
62994;SDS011;49086;52.300;4.850;2023-01-19T02:15:37;0.65;;;0.50;;
62994;SDS011;49086;52.300;4.850;2023-01-19T02:18:02;2.08;;;0.60;;
62994;SDS011;49086;52.300;4.850;2023-01-19T02:20:28;1.33;;;0.85;;
62994;SDS011;49086;52.300;4.850;2023-01-19T02:22:55;4.03;;;0.70;;
62994;SDS011;49086;52.300;4.850;2023-01-19T02:25:30;2.20;;;0.93;;
62994;SDS011;49086;52.300;4.850;2023-01-19T02:27:56;4.57;;;0.80;;
62994;SDS011;49086;52.300;4.850;2023-01-19T02:30:22;0.80;;;0.60;;
62994;SDS011;49086;52.300;4.850;2023-01-19T02:32:49;3.03;;;0.70;;
62994;SDS011;49086;52.300;4.850;2023-01-19T02:35:15;5.30;;;1.02;;
62994;SDS011;49086;52.300;4.850;2023-01-19T02:37:42;3.22;;;0.60;;
62994;SDS011;49086;52.300;4.850;2023-01-19T02:40:12;7.40;;;1.23;;
62994;SDS011;49086;52.300;4.850;2023-01-19T02:42:42;1.92;;;1.13;;
62994;SDS011;49086;52.300;4.850;2023-01-19T02:45:09;1.27;;;0.85;;
62994;SDS011;49086;52.300;4.850;2023-01-19T02:47:39;2.17;;;0.65;;
62994;SDS011;49086;52.300;4.850;2023-01-19T02:52:53;0.75;;;0.60;;
62994;SDS011;49086;52.300;4.850;2023-01-19T02:55:25;1.90;;;0.63;;
62994;SDS011;49086;52.300;4.850;2023-01-19T02:58:14;2.83;;;0.75;;
62994;SDS011;49086;52.300;4.850;2023-01-19T03:00:47;0.95;;;0.68;;
62994;SDS011;49086;52.300;4.850;2023-01-19T03:11:05;4.68;;;0.88;;
62994;SDS011;49086;52.300;4.850;2023-01-19T03:19:09;2.40;;;1.30;;
62994;SDS011;49086;52.300;4.850;2023-01-19T03:21:58;3.95;;;1.00;;
62994;SDS011;49086;52.300;4.850;2023-01-19T03:24:25;6.38;;;0.90;;
62994;SDS011;49086;52.300;4.850;2023-01-19T03:27:14;8.18;;;1.25;;
62994;SDS011;49086;52.300;4.850;2023-01-19T03:29:42;7.63;;;1.40;;
62994;SDS011;49086;52.300;4.850;2023-01-19T03:32:12;8.23;;;1.40;;
62994;SDS011;49086;52.300;4.850;2023-01-19T03:34:39;5.07;;;1.48;;
62994;SDS011;49086;52.300;4.850;2023-01-19T03:37:06;6.47;;;0.90;;
62994;SDS011;49086;52.300;4.850;2023-01-19T03:39:35;8.02;;;0.98;;
62994;SDS011;49086;52.300;4.850;2023-01-19T03:42:01;5.25;;;1.20;;
62994;SDS011;49086;52.300;4.850;2023-01-19T03:44:28;4.68;;;1.48;;
62994;SDS011;49086;52.300;4.850;2023-01-19T03:46:56;4.60;;;1.00;;
62994;SDS011;49086;52.300;4.850;2023-01-19T03:49:29;3.08;;;1.23;;
62994;SDS011;49086;52.300;4.850;2023-01-19T03:51:55;8.18;;;1.20;;
62994;SDS011;49086;52.300;4.850;2023-01-19T03:54:31;7.28;;;1.08;;
62994;SDS011;49086;52.300;4.850;2023-01-19T03:56:59;7.88;;;1.92;;
62994;SDS011;49086;52.300;4.850;2023-01-19T03:59:25;7.95;;;1.60;;
62994;SDS011;49086;52.300;4.850;2023-01-19T04:01:54;3.42;;;1.15;;
62994;SDS011;49086;52.300;4.850;2023-01-19T04:04:21;9.02;;;1.88;;
62994;SDS011;49086;52.300;4.850;2023-01-19T04:06:47;7.35;;;1.63;;
62994;SDS011;49086;52.300;4.850;2023-01-19T04:09:18;23.08;;;3.05;;
62994;SDS011;49086;52.300;4.850;2023-01-19T04:11:45;11.85;;;2.17;;
62994;SDS011;49086;52.300;4.850;2023-01-19T04:14:11;8.70;;;1.52;;
62994;SDS011;49086;52.300;4.850;2023-01-19T04:16:37;9.60;;;1.70;;
62994;SDS011;49086;52.300;4.850;2023-01-19T04:19:08;4.95;;;1.70;;
62994;SDS011;49086;52.300;4.850;2023-01-19T04:21:38;10.57;;;1.60;;
62994;SDS011;49086;52.300;4.850;2023-01-19T04:24:08;12.43;;;1.95;;
62994;SDS011;49086;52.300;4.850;2023-01-19T04:26:33;11.70;;;1.90;;
62994;SDS011;49086;52.300;4.850;2023-01-19T04:28:58;10.70;;;1.42;;
62994;SDS011;49086;52.300;4.850;2023-01-19T04:31:24;6.95;;;1.75;;
62994;SDS011;49086;52.300;4.850;2023-01-19T04:33:50;9.02;;;1.65;;
62994;SDS011;49086;52.300;4.850;2023-01-19T04:36:18;12.55;;;2.08;;
62994;SDS011;49086;52.300;4.850;2023-01-19T04:38:46;10.30;;;1.75;;
62994;SDS011;49086;52.300;4.850;2023-01-19T04:41:21;20.02;;;1.95;;
62994;SDS011;49086;52.300;4.850;2023-01-19T04:43:47;9.38;;;1.77;;
62994;SDS011;49086;52.300;4.850;2023-01-19T04:46:14;13.13;;;1.95;;
62994;SDS011;49086;52.300;4.850;2023-01-19T04:48:39;7.45;;;1.30;;
62994;SDS011;49086;52.300;4.850;2023-01-19T04:51:04;14.60;;;1.52;;
62994;SDS011;49086;52.300;4.850;2023-01-19T04:53:29;11.63;;;2.40;;
62994;SDS011;49086;52.300;4.850;2023-01-19T04:55:55;6.50;;;1.30;;
62994;SDS011;49086;52.300;4.850;2023-01-19T04:58:22;6.50;;;1.48;;
62994;SDS011;49086;52.300;4.850;2023-01-19T05:00:47;7.83;;;1.37;;
62994;SDS011;49086;52.300;4.850;2023-01-19T05:03:13;6.15;;;0.98;;
62994;SDS011;49086;52.300;4.850;2023-01-19T05:05:40;7.80;;;1.75;;
62994;SDS011;49086;52.300;4.850;2023-01-19T05:08:14;16.23;;;1.65;;
62994;SDS011;49086;52.300;4.850;2023-01-19T05:10:41;13.45;;;1.92;;
62994;SDS011;49086;52.300;4.850;2023-01-19T05:13:07;11.93;;;1.70;;
62994;SDS011;49086;52.300;4.850;2023-01-19T05:15:33;11.85;;;1.90;;
62994;SDS011;49086;52.300;4.850;2023-01-19T05:18:01;12.63;;;2.25;;
62994;SDS011;49086;52.300;4.850;2023-01-19T05:20:29;16.40;;;2.17;;
62994;SDS011;49086;52.300;4.850;2023-01-19T05:22:57;8.35;;;1.48;;
62994;SDS011;49086;52.300;4.850;2023-01-19T05:25:26;12.23;;;1.98;;
62994;SDS011;49086;52.300;4.850;2023-01-19T05:27:55;15.38;;;1.75;;
62994;SDS011;49086;52.300;4.850;2023-01-19T05:30:29;7.97;;;1.58;;
62994;SDS011;49086;52.300;4.850;2023-01-19T05:32:57;9.50;;;1.50;;
62994;SDS011;49086;52.300;4.850;2023-01-19T05:35:22;18.38;;;1.52;;
62994;SDS011;49086;52.300;4.850;2023-01-19T05:37:48;15.20;;;1.88;;
62994;SDS011;49086;52.300;4.850;2023-01-19T05:40:13;9.52;;;1.70;;
62994;SDS011;49086;52.300;4.850;2023-01-19T05:42:43;8.90;;;2.13;;
62994;SDS011;49086;52.300;4.850;2023-01-19T05:45:22;7.47;;;1.40;;
62994;SDS011;49086;52.300;4.850;2023-01-19T05:48:06;12.60;;;2.00;;
62994;SDS011;49086;52.300;4.850;2023-01-19T05:50:39;9.50;;;1.73;;
62994;SDS011;49086;52.300;4.850;2023-01-19T05:53:34;4.40;;;1.35;;
62994;SDS011;49086;52.300;4.850;2023-01-19T05:56:23;12.55;;;1.85;;
62994;SDS011;49086;52.300;4.850;2023-01-19T05:59:11;9.52;;;1.80;;
62994;SDS011;49086;52.300;4.850;2023-01-19T06:02:03;7.78;;;1.98;;
62994;SDS011;49086;52.300;4.850;2023-01-19T06:04:29;16.52;;;2.42;;
62994;SDS011;49086;52.300;4.850;2023-01-19T06:06:55;12.13;;;1.30;;
62994;SDS011;49086;52.300;4.850;2023-01-19T06:09:21;13.73;;;2.05;;
62994;SDS011;49086;52.300;4.850;2023-01-19T06:11:49;6.32;;;1.48;;
62994;SDS011;49086;52.300;4.850;2023-01-19T06:14:21;8.18;;;2.22;;
62994;SDS011;49086;52.300;4.850;2023-01-19T06:16:48;10.93;;;1.50;;
62994;SDS011;49086;52.300;4.850;2023-01-19T06:19:13;10.02;;;1.90;;
62994;SDS011;49086;52.300;4.850;2023-01-19T06:21:40;10.13;;;1.85;;
62994;SDS011;49086;52.300;4.850;2023-01-19T06:24:05;12.25;;;1.65;;
62994;SDS011;49086;52.300;4.850;2023-01-19T06:26:32;5.70;;;1.42;;
62994;SDS011;49086;52.300;4.850;2023-01-19T06:29:11;7.88;;;1.80;;
62994;SDS011;49086;52.300;4.850;2023-01-19T06:32:09;9.00;;;2.45;;
62994;SDS011;49086;52.300;4.850;2023-01-19T06:34:34;7.50;;;1.40;;
62994;SDS011;49086;52.300;4.850;2023-01-19T06:36:59;9.70;;;1.20;;
62994;SDS011;49086;52.300;4.850;2023-01-19T06:39:25;9.15;;;1.45;;
62994;SDS011;49086;52.300;4.850;2023-01-19T06:41:51;7.13;;;1.45;;
62994;SDS011;49086;52.300;4.850;2023-01-19T06:44:16;8.27;;;1.63;;
62994;SDS011;49086;52.300;4.850;2023-01-19T06:46:41;3.47;;;1.40;;
62994;SDS011;49086;52.300;4.850;2023-01-19T06:49:07;6.15;;;1.83;;
62994;SDS011;49086;52.300;4.850;2023-01-19T06:51:36;5.82;;;1.33;;
62994;SDS011;49086;52.300;4.850;2023-01-19T06:54:02;8.13;;;1.73;;
62994;SDS011;49086;52.300;4.850;2023-01-19T06:56:27;10.77;;;2.33;;
62994;SDS011;49086;52.300;4.850;2023-01-19T06:58:58;11.43;;;1.75;;
62994;SDS011;49086;52.300;4.850;2023-01-19T07:01:24;11.25;;;2.25;;
62994;SDS011;49086;52.300;4.850;2023-01-19T07:03:50;8.20;;;1.65;;
62994;SDS011;49086;52.300;4.850;2023-01-19T07:06:18;12.18;;;2.17;;
62994;SDS011;49086;52.300;4.850;2023-01-19T07:08:44;11.77;;;1.92;;
62994;SDS011;49086;52.300;4.850;2023-01-19T07:11:13;12.95;;;2.08;;
62994;SDS011;49086;52.300;4.850;2023-01-19T07:13:44;7.95;;;1.20;;
62994;SDS011;49086;52.300;4.850;2023-01-19T07:16:20;10.93;;;1.58;;
62994;SDS011;49086;52.300;4.850;2023-01-19T07:18:46;7.80;;;1.42;;
62994;SDS011;49086;52.300;4.850;2023-01-19T07:21:13;6.88;;;1.80;;
62994;SDS011;49086;52.300;4.850;2023-01-19T07:23:39;10.13;;;1.63;;
62994;SDS011;49086;52.300;4.850;2023-01-19T07:26:16;20.33;;;2.33;;
62994;SDS011;49086;52.300;4.850;2023-01-19T07:28:48;10.40;;;1.73;;
62994;SDS011;49086;52.300;4.850;2023-01-19T07:31:15;9.10;;;1.38;;
62994;SDS011;49086;52.300;4.850;2023-01-19T07:33:49;11.88;;;1.60;;
62994;SDS011;49086;52.300;4.850;2023-01-19T07:36:14;8.95;;;1.95;;
62994;SDS011;49086;52.300;4.850;2023-01-19T07:38:45;7.05;;;1.73;;
62994;SDS011;49086;52.300;4.850;2023-01-19T07:41:12;6.93;;;1.60;;
62994;SDS011;49086;52.300;4.850;2023-01-19T07:43:40;8.40;;;1.20;;
62994;SDS011;49086;52.300;4.850;2023-01-19T07:46:10;6.38;;;1.58;;
62994;SDS011;49086;52.300;4.850;2023-01-19T07:48:41;11.98;;;2.03;;
62994;SDS011;49086;52.300;4.850;2023-01-19T07:51:20;4.47;;;1.13;;
62994;SDS011;49086;52.300;4.850;2023-01-19T07:53:50;4.53;;;1.27;;
62994;SDS011;49086;52.300;4.850;2023-01-19T07:56:24;5.28;;;1.23;;
62994;SDS011;49086;52.300;4.850;2023-01-19T08:01:22;9.40;;;1.60;;
62994;SDS011;49086;52.300;4.850;2023-01-19T08:03:47;6.38;;;1.25;;
62994;SDS011;49086;52.300;4.850;2023-01-19T08:06:23;6.13;;;1.48;;
62994;SDS011;49086;52.300;4.850;2023-01-19T08:09:00;6.55;;;1.35;;
62994;SDS011;49086;52.300;4.850;2023-01-19T08:11:26;6.20;;;1.33;;
62994;SDS011;49086;52.300;4.850;2023-01-19T08:13:53;6.32;;;1.55;;
62994;SDS011;49086;52.300;4.850;2023-01-19T08:16:18;13.98;;;1.52;;
62994;SDS011;49086;52.300;4.850;2023-01-19T08:18:48;2.88;;;1.05;;
62994;SDS011;49086;52.300;4.850;2023-01-19T08:21:14;7.70;;;1.73;;
62994;SDS011;49086;52.300;4.850;2023-01-19T08:23:39;11.73;;;2.17;;
62994;SDS011;49086;52.300;4.850;2023-01-19T08:26:18;9.40;;;2.08;;
62994;SDS011;49086;52.300;4.850;2023-01-19T08:28:44;4.38;;;1.70;;
62994;SDS011;49086;52.300;4.850;2023-01-19T08:31:19;10.05;;;1.60;;
62994;SDS011;49086;52.300;4.850;2023-01-19T08:33:47;11.90;;;1.75;;
62994;SDS011;49086;52.300;4.850;2023-01-19T08:36:21;6.32;;;1.30;;
62994;SDS011;49086;52.300;4.850;2023-01-19T08:38:50;6.18;;;1.60;;
62994;SDS011;49086;52.300;4.850;2023-01-19T08:41:16;8.80;;;1.58;;
62994;SDS011;49086;52.300;4.850;2023-01-19T08:43:43;6.15;;;1.23;;
62994;SDS011;49086;52.300;4.850;2023-01-19T08:46:10;5.57;;;1.30;;
62994;SDS011;49086;52.300;4.850;2023-01-19T08:48:40;4.43;;;0.98;;
62994;SDS011;49086;52.300;4.850;2023-01-19T08:51:07;3.20;;;0.90;;
62994;SDS011;49086;52.300;4.850;2023-01-19T08:53:33;6.88;;;1.65;;
62994;SDS011;49086;52.300;4.850;2023-01-19T08:55:59;11.52;;;1.35;;
62994;SDS011;49086;52.300;4.850;2023-01-19T08:58:26;3.35;;;1.10;;
62994;SDS011;49086;52.300;4.850;2023-01-19T09:00:52;8.38;;;1.75;;
62994;SDS011;49086;52.300;4.850;2023-01-19T09:03:17;6.25;;;1.33;;
62994;SDS011;49086;52.300;4.850;2023-01-19T09:05:49;7.55;;;1.30;;
62994;SDS011;49086;52.300;4.850;2023-01-19T09:08:14;6.60;;;1.50;;
62994;SDS011;49086;52.300;4.850;2023-01-19T09:10:44;7.13;;;1.30;;
62994;SDS011;49086;52.300;4.850;2023-01-19T09:13:10;5.82;;;1.42;;
62994;SDS011;49086;52.300;4.850;2023-01-19T09:15:37;4.30;;;1.02;;
62994;SDS011;49086;52.300;4.850;2023-01-19T09:18:09;5.05;;;1.08;;
62994;SDS011;49086;52.300;4.850;2023-01-19T09:20:37;6.32;;;1.67;;
62994;SDS011;49086;52.300;4.850;2023-01-19T09:23:06;5.35;;;1.30;;
62994;SDS011;49086;52.300;4.850;2023-01-19T09:25:34;10.70;;;1.23;;
62994;SDS011;49086;52.300;4.850;2023-01-19T09:28:10;4.72;;;1.00;;
62994;SDS011;49086;52.300;4.850;2023-01-19T09:30:36;2.65;;;0.95;;
62994;SDS011;49086;52.300;4.850;2023-01-19T09:33:03;4.40;;;0.98;;
62994;SDS011;49086;52.300;4.850;2023-01-19T09:35:30;3.00;;;0.80;;
62994;SDS011;49086;52.300;4.850;2023-01-19T09:37:57;6.18;;;0.93;;
62994;SDS011;49086;52.300;4.850;2023-01-19T09:40:23;7.93;;;1.15;;
62994;SDS011;49086;52.300;4.850;2023-01-19T09:42:50;4.10;;;1.20;;
62994;SDS011;49086;52.300;4.850;2023-01-19T09:45:18;6.18;;;1.40;;
62994;SDS011;49086;52.300;4.850;2023-01-19T09:47:46;4.07;;;1.25;;
62994;SDS011;49086;52.300;4.850;2023-01-19T09:50:18;5.18;;;1.00;;
62994;SDS011;49086;52.300;4.850;2023-01-19T09:52:46;3.35;;;0.90;;
62994;SDS011;49086;52.300;4.850;2023-01-19T09:55:25;3.47;;;1.20;;
62994;SDS011;49086;52.300;4.850;2023-01-19T09:57:50;9.23;;;1.25;;
62994;SDS011;49086;52.300;4.850;2023-01-19T10:00:16;2.40;;;1.13;;
62994;SDS011;49086;52.300;4.850;2023-01-19T10:02:47;3.88;;;0.93;;
62994;SDS011;49086;52.300;4.850;2023-01-19T10:05:29;1.25;;;0.77;;
62994;SDS011;49086;52.300;4.850;2023-01-19T10:10:23;5.85;;;1.38;;
62994;SDS011;49086;52.300;4.850;2023-01-19T10:18:18;5.57;;;1.20;;
62994;SDS011;49086;52.300;4.850;2023-01-19T10:20:47;2.55;;;1.20;;
62994;SDS011;49086;52.300;4.850;2023-01-19T10:25:59;3.47;;;1.40;;
62994;SDS011;49086;52.300;4.850;2023-01-19T10:28:27;4.95;;;0.98;;
62994;SDS011;49086;52.300;4.850;2023-01-19T10:30:53;4.20;;;0.90;;
62994;SDS011;49086;52.300;4.850;2023-01-19T10:33:20;3.92;;;1.02;;
62994;SDS011;49086;52.300;4.850;2023-01-19T10:35:47;2.53;;;1.10;;
62994;SDS011;49086;52.300;4.850;2023-01-19T10:38:13;4.03;;;1.25;;
62994;SDS011;49086;52.300;4.850;2023-01-19T10:40:45;2.35;;;0.70;;
62994;SDS011;49086;52.300;4.850;2023-01-19T10:48:22;4.95;;;0.90;;
62994;SDS011;49086;52.300;4.850;2023-01-19T10:50:49;4.78;;;1.20;;
62994;SDS011;49086;52.300;4.850;2023-01-19T10:53:25;5.97;;;1.02;;
62994;SDS011;49086;52.300;4.850;2023-01-19T10:55:50;7.22;;;1.10;;
62994;SDS011;49086;52.300;4.850;2023-01-19T10:58:33;4.95;;;1.33;;
62994;SDS011;49086;52.300;4.850;2023-01-19T11:01:20;8.80;;;1.73;;
62994;SDS011;49086;52.300;4.850;2023-01-19T11:03:46;4.22;;;1.23;;
62994;SDS011;49086;52.300;4.850;2023-01-19T11:08:39;4.80;;;1.73;;
62994;SDS011;49086;52.300;4.850;2023-01-19T11:11:05;3.60;;;1.10;;
62994;SDS011;49086;52.300;4.850;2023-01-19T11:13:32;10.10;;;1.27;;
62994;SDS011;49086;52.300;4.850;2023-01-19T11:16:03;9.48;;;1.30;;
62994;SDS011;49086;52.300;4.850;2023-01-19T11:18:32;7.03;;;1.40;;
62994;SDS011;49086;52.300;4.850;2023-01-19T11:21:02;8.20;;;1.60;;
62994;SDS011;49086;52.300;4.850;2023-01-19T11:23:33;4.70;;;1.55;;
62994;SDS011;49086;52.300;4.850;2023-01-19T11:26:09;8.55;;;1.38;;
62994;SDS011;49086;52.300;4.850;2023-01-19T11:28:40;4.82;;;1.30;;
62994;SDS011;49086;52.300;4.850;2023-01-19T11:33:36;7.03;;;1.35;;
62994;SDS011;49086;52.300;4.850;2023-01-19T11:36:02;4.40;;;1.20;;
62994;SDS011;49086;52.300;4.850;2023-01-19T11:38:28;6.13;;;1.48;;
62994;SDS011;49086;52.300;4.850;2023-01-19T11:40:57;7.07;;;1.33;;
62994;SDS011;49086;52.300;4.850;2023-01-19T11:43:23;4.30;;;1.20;;
62994;SDS011;49086;52.300;4.850;2023-01-19T11:45:53;8.30;;;1.30;;
62994;SDS011;49086;52.300;4.850;2023-01-19T11:48:31;3.58;;;1.20;;
62994;SDS011;49086;52.300;4.850;2023-01-19T11:50:58;6.60;;;1.33;;
62994;SDS011;49086;52.300;4.850;2023-01-19T11:53:33;4.38;;;0.95;;
62994;SDS011;49086;52.300;4.850;2023-01-19T11:56:08;1.67;;;0.82;;
62994;SDS011;49086;52.300;4.850;2023-01-19T11:58:37;5.00;;;1.20;;
62994;SDS011;49086;52.300;4.850;2023-01-19T12:01:13;5.88;;;1.35;;
62994;SDS011;49086;52.300;4.850;2023-01-19T12:03:44;7.97;;;1.10;;
62994;SDS011;49086;52.300;4.850;2023-01-19T12:06:14;3.92;;;1.10;;
62994;SDS011;49086;52.300;4.850;2023-01-19T12:08:46;4.20;;;1.10;;
62994;SDS011;49086;52.300;4.850;2023-01-19T12:11:15;5.45;;;1.20;;
62994;SDS011;49086;52.300;4.850;2023-01-19T12:13:41;5.68;;;1.20;;
62994;SDS011;49086;52.300;4.850;2023-01-19T12:16:12;1.98;;;1.00;;
62994;SDS011;49086;52.300;4.850;2023-01-19T12:18:42;5.90;;;1.45;;
62994;SDS011;49086;52.300;4.850;2023-01-19T12:21:09;7.32;;;1.42;;
62994;SDS011;49086;52.300;4.850;2023-01-19T12:26:25;6.57;;;1.55;;
62994;SDS011;49086;52.300;4.850;2023-01-19T12:28:54;6.32;;;1.13;;
62994;SDS011;49086;52.300;4.850;2023-01-19T12:31:22;5.45;;;1.10;;
62994;SDS011;49086;52.300;4.850;2023-01-19T12:33:50;6.95;;;2.00;;
62994;SDS011;49086;52.300;4.850;2023-01-19T12:38:54;2.67;;;1.30;;
62994;SDS011;49086;52.300;4.850;2023-01-19T12:41:32;3.10;;;1.25;;
62994;SDS011;49086;52.300;4.850;2023-01-19T12:46:33;6.50;;;1.30;;
62994;SDS011;49086;52.300;4.850;2023-01-19T12:49:41;3.83;;;1.38;;
62994;SDS011;49086;52.300;4.850;2023-01-19T12:51:48;2.30;;;1.10;;
62994;SDS011;49086;52.300;4.850;2023-01-19T12:54:19;6.40;;;1.20;;
62994;SDS011;49086;52.300;4.850;2023-01-19T12:56:47;7.50;;;1.30;;
62994;SDS011;49086;52.300;4.850;2023-01-19T12:59:22;5.22;;;1.30;;
62994;SDS011;49086;52.300;4.850;2023-01-19T13:04:34;4.88;;;1.40;;
62994;SDS011;49086;52.300;4.850;2023-01-19T13:09:45;8.88;;;1.42;;
62994;SDS011;49086;52.300;4.850;2023-01-19T13:14:39;5.60;;;1.50;;
62994;SDS011;49086;52.300;4.850;2023-01-19T13:17:11;5.85;;;1.42;;
62994;SDS011;49086;52.300;4.850;2023-01-19T13:19:43;5.47;;;1.45;;
62994;SDS011;49086;52.300;4.850;2023-01-19T13:27:37;4.30;;;1.17;;
62994;SDS011;49086;52.300;4.850;2023-01-19T13:30:08;2.08;;;1.02;;
62994;SDS011;49086;52.300;4.850;2023-01-19T13:32:34;2.22;;;0.93;;
62994;SDS011;49086;52.300;4.850;2023-01-19T13:35:00;4.93;;;1.23;;
62994;SDS011;49086;52.300;4.850;2023-01-19T13:37:36;3.17;;;1.13;;
62994;SDS011;49086;52.300;4.850;2023-01-19T13:40:06;3.70;;;1.10;;
62994;SDS011;49086;52.300;4.850;2023-01-19T13:42:32;4.40;;;1.20;;
62994;SDS011;49086;52.300;4.850;2023-01-19T13:45:00;5.93;;;1.10;;
62994;SDS011;49086;52.300;4.850;2023-01-19T13:47:36;3.67;;;1.15;;
62994;SDS011;49086;52.300;4.850;2023-01-19T13:50:05;4.88;;;0.98;;
62994;SDS011;49086;52.300;4.850;2023-01-19T13:52:30;5.03;;;1.05;;
62994;SDS011;49086;52.300;4.850;2023-01-19T13:55:00;6.30;;;1.05;;
62994;SDS011;49086;52.300;4.850;2023-01-19T13:57:58;4.97;;;1.02;;
62994;SDS011;49086;52.300;4.850;2023-01-19T14:00:18;2.83;;;0.90;;
62994;SDS011;49086;52.300;4.850;2023-01-19T14:02:51;4.10;;;0.85;;
62994;SDS011;49086;52.300;4.850;2023-01-19T14:07:45;4.13;;;1.07;;
62994;SDS011;49086;52.300;4.850;2023-01-19T14:10:14;2.88;;;0.98;;
62994;SDS011;49086;52.300;4.850;2023-01-19T14:12:40;2.95;;;1.00;;
62994;SDS011;49086;52.300;4.850;2023-01-19T14:15:10;5.05;;;0.88;;
62994;SDS011;49086;52.300;4.850;2023-01-19T14:20:28;2.35;;;0.73;;
62994;SDS011;49086;52.300;4.850;2023-01-19T14:22:53;2.13;;;0.77;;
62994;SDS011;49086;52.300;4.850;2023-01-19T14:25:25;1.25;;;0.70;;
62994;SDS011;49086;52.300;4.850;2023-01-19T14:28:24;2.70;;;0.90;;
62994;SDS011;49086;52.300;4.850;2023-01-19T14:30:38;2.65;;;1.05;;
62994;SDS011;49086;52.300;4.850;2023-01-19T14:33:03;3.70;;;0.98;;
62994;SDS011;49086;52.300;4.850;2023-01-19T14:35:31;3.70;;;1.00;;
62994;SDS011;49086;52.300;4.850;2023-01-19T14:38:09;5.97;;;1.10;;
62994;SDS011;49086;52.300;4.850;2023-01-19T14:43:04;1.98;;;0.80;;
62994;SDS011;49086;52.300;4.850;2023-01-19T14:45:36;3.60;;;0.90;;
62994;SDS011;49086;52.300;4.850;2023-01-19T14:50:29;2.58;;;1.02;;
62994;SDS011;49086;52.300;4.850;2023-01-19T14:53:16;4.72;;;1.38;;
62994;SDS011;49086;52.300;4.850;2023-01-19T14:55:49;2.45;;;0.90;;
62994;SDS011;49086;52.300;4.850;2023-01-19T14:58:16;2.53;;;0.98;;
62994;SDS011;49086;52.300;4.850;2023-01-19T15:01:00;4.80;;;1.30;;
62994;SDS011;49086;52.300;4.850;2023-01-19T15:03:25;2.63;;;0.90;;
62994;SDS011;49086;52.300;4.850;2023-01-19T15:05:51;3.88;;;0.90;;
62994;SDS011;49086;52.300;4.850;2023-01-19T15:08:27;1.80;;;0.80;;
62994;SDS011;49086;52.300;4.850;2023-01-19T15:10:53;6.25;;;1.25;;
62994;SDS011;49086;52.300;4.850;2023-01-19T15:13:20;2.65;;;0.80;;
62994;SDS011;49086;52.300;4.850;2023-01-19T15:15:55;2.90;;;0.80;;
62994;SDS011;49086;52.300;4.850;2023-01-19T15:18:22;3.05;;;0.70;;
62994;SDS011;49086;52.300;4.850;2023-01-19T15:20:49;2.40;;;1.02;;
62994;SDS011;49086;52.300;4.850;2023-01-19T15:23:16;5.93;;;1.05;;
62994;SDS011;49086;52.300;4.850;2023-01-19T15:25:42;5.00;;;0.88;;
62994;SDS011;49086;52.300;4.850;2023-01-19T15:28:12;2.85;;;1.15;;
62994;SDS011;49086;52.300;4.850;2023-01-19T15:30:38;1.42;;;0.90;;
62994;SDS011;49086;52.300;4.850;2023-01-19T15:33:04;4.57;;;1.88;;
62994;SDS011;49086;52.300;4.850;2023-01-19T15:35:29;2.88;;;1.00;;
62994;SDS011;49086;52.300;4.850;2023-01-19T15:37:57;3.13;;;0.98;;
62994;SDS011;49086;52.300;4.850;2023-01-19T15:40:24;4.28;;;1.00;;
62994;SDS011;49086;52.300;4.850;2023-01-19T15:42:50;5.97;;;1.10;;
62994;SDS011;49086;52.300;4.850;2023-01-19T15:47:46;5.88;;;0.90;;
62994;SDS011;49086;52.300;4.850;2023-01-19T15:50:11;5.40;;;1.05;;
62994;SDS011;49086;52.300;4.850;2023-01-19T15:52:38;3.20;;;1.00;;
62994;SDS011;49086;52.300;4.850;2023-01-19T15:55:08;2.63;;;1.08;;
62994;SDS011;49086;52.300;4.850;2023-01-19T15:57:34;3.25;;;1.00;;
62994;SDS011;49086;52.300;4.850;2023-01-19T15:59:59;5.43;;;1.17;;
62994;SDS011;49086;52.300;4.850;2023-01-19T16:02:25;1.97;;;0.90;;
62994;SDS011;49086;52.300;4.850;2023-01-19T16:04:53;1.45;;;0.80;;
62994;SDS011;49086;52.300;4.850;2023-01-19T16:07:19;2.13;;;0.97;;
62994;SDS011;49086;52.300;4.850;2023-01-19T16:09:46;2.53;;;0.80;;
62994;SDS011;49086;52.300;4.850;2023-01-19T16:12:12;2.35;;;1.13;;
62994;SDS011;49086;52.300;4.850;2023-01-19T16:14:39;2.88;;;0.82;;
62994;SDS011;49086;52.300;4.850;2023-01-19T16:17:04;3.05;;;1.30;;
62994;SDS011;49086;52.300;4.850;2023-01-19T16:19:32;1.63;;;0.90;;
62994;SDS011;49086;52.300;4.850;2023-01-19T16:21:57;3.40;;;1.20;;